createdAt,value
2019-04-21T00:02:28.469Z,102398.22
2019-04-21T00:05:10.843Z,102386.81
2019-04-21T00:07:40.325Z,102393.91
2019-04-21T00:10:09.067Z,102388.66
2019-04-21T00:12:31.149Z,102387.36
2019-04-21T00:14:49.698Z,102393.64
2019-04-21T00:17:12.926Z,102397.67
2019-04-21T00:20:07.625Z,102403.47
2019-04-21T00:22:34.164Z,102402.25
2019-04-21T00:25:04.222Z,102393.45
2019-04-21T00:27:33.445Z,102390.91
2019-04-21T00:30:03.319Z,102386.55
2019-04-21T00:32:25.451Z,102390.55
2019-04-21T00:34:42.030Z,102386.60
2019-04-21T00:37:18.023Z,102384.41
2019-04-21T00:40:09.418Z,102378.75
2019-04-21T00:42:22.711Z,102380.98
2019-04-21T00:44:44.377Z,102385.92
2019-04-21T00:47:18.012Z,102373.16
2019-04-21T00:49:46.681Z,102375.88
2019-04-21T00:52:36.682Z,102377.28
2019-04-21T00:54:59.751Z,102372.94
2019-04-21T00:57:28.796Z,102376.05
2019-04-21T00:59:48.394Z,102374.80
2019-04-21T01:02:10.915Z,102381.47
2019-04-21T01:04:43.030Z,102380.17
2019-04-21T01:07:11.141Z,102381.50
2019-04-21T01:09:32.716Z,102375.28
2019-04-21T01:12:04.590Z,102381.03
2019-04-21T01:14:34.354Z,102378.80
2019-04-21T01:17:03.858Z,102382.80
2019-04-21T01:19:32.080Z,102377.94
2019-04-21T01:21:34.966Z,102376.17
2019-04-21T01:24:07.730Z,102370.95
2019-04-21T01:26:42.751Z,102361.72
2019-04-21T01:29:14.464Z,102356.91
2019-04-21T01:31:43.866Z,102352.55
2019-04-21T01:34:14.851Z,102346.44
2019-04-21T01:36:38.852Z,102342.92
2019-04-21T01:39:15.031Z,102335.89
2019-04-21T01:41:41.345Z,102331.92
2019-04-21T01:44:01.179Z,102336.77
2019-04-21T01:46:28.446Z,102335.89
2019-04-21T01:48:54.149Z,102332.80
2019-04-21T01:51:22.327Z,102338.93
2019-04-21T01:54:09.298Z,102336.73
2019-04-21T01:56:40.485Z,102339.36
2019-04-21T01:59:00.780Z,102341.09
2019-04-21T02:01:49.275Z,102332.27
2019-04-21T02:04:11.017Z,102332.27
2019-04-21T02:06:36.230Z,102326.53
2019-04-21T02:08:57.975Z,102323.41
2019-04-21T02:11:29.990Z,102318.53
2019-04-21T02:14:07.410Z,102325.20
2019-04-21T02:16:25.157Z,102318.58
2019-04-21T02:18:53.132Z,102318.56
2019-04-21T02:21:16.700Z,102323.47
2019-04-21T02:23:57.064Z,102320.81
2019-04-21T02:26:16.386Z,102305.34
2019-04-21T02:28:50.563Z,102309.70
2019-04-21T02:31:28.696Z,102314.97
2019-04-21T02:33:55.703Z,102314.13
2019-04-21T02:39:02.347Z,102311.89
2019-04-21T02:41:06.032Z,102309.69
2019-04-21T02:43:50.225Z,102299.95
2019-04-21T02:46:12.994Z,102296.91
2019-04-21T02:48:38.983Z,102300.91
2019-04-21T02:51:05.577Z,102291.16
2019-04-21T02:53:45.508Z,102293.34
2019-04-21T02:56:00.227Z,102286.73
2019-04-21T03:01:05.237Z,102296.94
2019-04-21T03:03:36.434Z,102302.74
2019-04-21T03:06:27.140Z,102297.47
2019-04-21T03:11:17.063Z,102300.07
2019-04-21T03:13:54.829Z,102301.81
2019-04-21T03:21:15.798Z,102296.89
2019-04-21T03:23:53.543Z,102294.21
2019-04-21T03:26:10.316Z,102301.25
2019-04-21T03:31:19.200Z,102290.63
2019-04-21T03:38:27.040Z,102294.58
2019-04-21T03:40:49.701Z,102292.81
2019-04-21T03:43:23.106Z,102295.45
2019-04-21T03:45:42.434Z,102290.16
2019-04-21T03:48:21.662Z,102287.52
2019-04-21T03:50:41.244Z,102293.25
2019-04-21T03:53:09.344Z,102297.22
2019-04-21T03:55:58.624Z,102295.45
2019-04-21T03:58:16.948Z,102294.14
2019-04-21T04:03:39.515Z,102293.67
2019-04-21T04:06:02.009Z,102300.27
2019-04-21T04:08:44.786Z,102294.08
2019-04-21T04:11:15.163Z,102288.33
2019-04-21T04:13:27.660Z,102290.03
2019-04-21T04:15:56.583Z,102244.95
2019-04-21T04:18:28.584Z,102282.09
2019-04-21T04:25:53.219Z,102276.33
2019-04-21T04:28:22.909Z,102259.48
2019-04-21T04:33:12.418Z,102247.52
2019-04-21T04:35:52.931Z,102251.88
2019-04-21T04:43:11.745Z,102252.23
2019-04-21T04:48:10.999Z,102264.98
2019-04-21T04:55:29.219Z,102270.20
2019-04-21T05:00:28.203Z,102268.94
2019-04-21T05:02:48.861Z,102268.02
2019-04-21T05:05:24.219Z,102263.63
2019-04-21T05:07:50.093Z,102268.41
2019-04-21T05:10:06.763Z,102276.80
2019-04-21T05:12:38.489Z,102271.86
2019-04-21T05:15:10.084Z,102280.58
2019-04-21T05:20:08.633Z,102323.20
2019-04-21T05:24:44.103Z,102331.57
2019-04-21T05:27:25.028Z,102305.50
2019-04-21T05:30:00.436Z,102305.89
2019-04-21T05:32:41.710Z,102307.13
2019-04-21T05:35:11.161Z,102280.58
2019-04-21T05:37:35.160Z,102287.59
2019-04-21T05:40:00.643Z,102261.37
2019-04-21T05:42:35.243Z,102257.27
2019-04-21T05:45:07.989Z,102277.92
2019-04-21T05:47:41.629Z,102283.16
2019-04-21T05:50:06.486Z,102294.53
2019-04-21T05:52:34.027Z,102286.45
2019-04-21T05:55:09.578Z,102282.77
2019-04-21T05:57:33.354Z,102273.80
2019-04-21T06:00:07.588Z,102276.31
2019-04-21T06:07:31.329Z,102280.55
2019-04-21T06:09:57.203Z,102271.55
2019-04-21T06:12:23.789Z,102273.22
2019-04-21T06:17:25.350Z,102273.31
2019-04-21T06:19:52.626Z,102270.06
2019-04-21T06:22:10.348Z,102267.30
2019-04-21T06:24:54.761Z,102276.89
2019-04-21T06:27:08.451Z,102281.61
2019-04-21T06:29:42.094Z,102273.94
2019-04-21T06:32:20.434Z,102268.91
2019-04-21T06:34:43.237Z,102261.67
2019-04-21T06:37:07.817Z,102268.16
2019-04-21T06:39:31.795Z,102264.02
2019-04-21T06:41:59.826Z,102267.40
2019-04-21T06:44:26.384Z,102268.13
2019-04-21T06:46:48.909Z,102268.94
2019-04-21T06:49:16.160Z,102267.97
2019-04-21T06:51:48.297Z,102274.09
2019-04-21T06:54:16.197Z,102270.91
2019-04-21T06:56:58.497Z,102273.44
2019-04-21T06:59:09.334Z,102273.84
2019-04-21T07:01:45.601Z,102260.52
2019-04-21T07:06:43.672Z,102262.11
2019-04-21T07:11:28.756Z,102264.56
2019-04-21T07:14:16.169Z,102263.59
2019-04-21T07:16:32.176Z,102262.62
2019-04-21T07:18:51.269Z,102259.88
2019-04-21T07:21:23.508Z,102257.08
2019-04-21T07:23:53.865Z,102258.20
2019-04-21T07:26:22.292Z,102255.97
2019-04-21T07:28:47.844Z,102254.52
2019-04-21T07:31:22.795Z,102254.83
2019-04-21T07:33:53.809Z,102254.33
2019-04-21T07:36:16.276Z,102267.59
2019-04-21T07:38:36.590Z,102253.41
2019-04-21T07:40:56.732Z,102270.66
2019-04-21T07:43:28.625Z,102271.50
2019-04-21T07:45:52.779Z,102269.72
2019-04-21T07:48:38.083Z,102273.14
2019-04-21T07:51:18.886Z,102269.45
2019-04-21T07:53:55.893Z,102265.37
2019-04-21T07:56:06.251Z,102269.72
2019-04-21T07:58:45.849Z,102268.64
2019-04-21T08:01:11.954Z,102268.45
2019-04-21T08:03:40.590Z,102271.92
2019-04-21T08:06:18.724Z,102271.73
2019-04-21T08:08:34.209Z,102276.42
2019-04-21T08:11:02.699Z,102270.13
2019-04-21T08:13:39.470Z,102266.52
2019-04-21T08:15:57.751Z,102263.75
2019-04-21T08:18:27.085Z,102262.92
2019-04-21T08:20:54.697Z,102259.06
2019-04-21T08:23:25.630Z,102256.00
2019-04-21T08:26:07.859Z,102260.05
2019-04-21T08:28:22.499Z,102267.64
2019-04-21T08:30:43.224Z,102265.08
2019-04-21T08:33:29.220Z,102271.73
2019-04-21T08:38:10.588Z,102274.00
2019-04-21T08:40:49.487Z,102271.24
2019-04-21T08:43:02.480Z,102276.47
2019-04-21T08:45:35.392Z,102270.75
2019-04-21T08:47:58.242Z,102277.80
2019-04-21T08:50:27.378Z,102277.31
2019-04-21T08:52:56.795Z,102270.13
2019-04-21T08:55:32.164Z,102271.27
2019-04-21T08:58:30.839Z,102272.94
2019-04-21T09:00:38.835Z,102267.52
2019-04-21T09:03:06.680Z,102267.37
2019-04-21T09:05:35.610Z,102266.38
2019-04-21T09:08:06.663Z,102263.20
2019-04-21T09:10:37.828Z,102261.78
2019-04-21T09:13:02.921Z,102255.37
2019-04-21T09:15:24.935Z,102242.33
2019-04-21T09:17:48.928Z,102240.34
2019-04-21T09:20:33.061Z,102245.42
2019-04-21T09:22:52.587Z,102241.61
2019-04-21T09:25:26.582Z,102238.44
2019-04-21T09:27:42.013Z,102244.63
2019-04-21T09:30:01.256Z,102236.95
2019-04-21T09:32:27.620Z,102239.52
2019-04-21T09:34:52.736Z,102233.25
2019-04-21T09:37:28.666Z,102240.91
2019-04-21T09:39:51.700Z,102245.30
2019-04-21T09:42:17.688Z,102237.36
2019-04-21T09:44:44.420Z,102236.02
2019-04-21T09:47:11.047Z,102232.80
2019-04-21T09:49:39.543Z,102234.23
2019-04-21T09:52:07.922Z,102228.23
2019-04-21T09:54:40.899Z,102231.83
2019-04-21T09:57:07.127Z,102224.39
2019-04-21T09:59:33.567Z,102224.84
2019-04-21T10:02:06.625Z,102225.77
2019-04-21T10:04:24.531Z,102223.66
2019-04-21T10:06:50.504Z,102223.36
2019-04-21T10:09:19.771Z,102234.18
2019-04-21T10:11:44.393Z,102232.56
2019-04-21T10:14:11.626Z,102235.38
2019-04-21T10:16:40.628Z,102241.64
2019-04-21T10:19:06.932Z,102242.24
2019-04-21T10:21:33.916Z,102243.77
2019-04-21T10:23:59.926Z,102239.39
2019-04-21T10:26:26.434Z,102238.11
2019-04-21T10:28:52.990Z,102244.25
2019-04-21T10:31:18.969Z,102238.99
2019-04-21T10:33:46.165Z,102233.86
2019-04-21T10:36:13.138Z,102230.46
2019-04-21T10:38:44.654Z,102231.00
2019-04-21T10:41:07.703Z,102235.14
2019-04-21T10:43:33.588Z,102231.25
2019-04-21T10:46:01.100Z,102233.22
2019-04-21T10:48:28.401Z,102233.89
2019-04-21T10:50:54.965Z,102238.07
2019-04-21T10:53:27.026Z,102238.17
2019-04-21T10:56:06.466Z,102233.42
2019-04-21T10:58:22.639Z,102235.70
2019-04-21T11:00:57.831Z,102233.56
2019-04-21T11:03:40.546Z,102236.77
2019-04-21T11:06:12.585Z,102230.60
2019-04-21T11:08:44.115Z,102231.04
2019-04-21T11:11:07.873Z,102228.73
2019-04-21T11:13:34.755Z,102229.93
2019-04-21T11:16:01.395Z,102230.28
2019-04-21T11:18:28.212Z,102239.02
2019-04-21T11:20:55.179Z,102239.45
2019-04-21T11:23:22.379Z,102238.66
2019-04-21T11:28:24.757Z,102231.16
2019-04-21T11:30:51.091Z,102232.98
2019-04-21T11:33:17.386Z,102229.13
2019-04-21T11:35:43.522Z,102223.91
2019-04-21T11:38:17.974Z,102240.98
2019-04-21T11:40:39.974Z,102242.05
2019-04-21T11:43:06.110Z,102245.42
2019-04-21T11:45:36.698Z,102244.71
2019-04-21T11:48:24.225Z,102247.19
2019-04-21T11:50:50.971Z,102248.73
2019-04-21T11:53:17.000Z,102250.72
2019-04-21T11:55:45.369Z,102248.22
2019-04-21T11:58:11.866Z,102241.22
2019-04-21T12:00:37.998Z,102245.30
2019-04-21T12:03:04.262Z,102240.02
2019-04-21T12:05:30.345Z,102243.07
2019-04-21T12:07:58.541Z,102228.45
2019-04-21T12:10:24.867Z,102232.88
2019-04-21T12:12:51.126Z,102234.25
2019-04-21T12:15:17.144Z,102188.35
2019-04-21T12:17:43.996Z,102214.60
2019-04-21T12:20:10.641Z,102240.86
2019-04-21T12:22:37.424Z,102242.80
2019-04-21T12:25:07.130Z,102232.20
2019-04-21T12:27:33.984Z,102230.91
2019-04-21T12:29:59.827Z,102214.58
2019-04-21T12:32:30.549Z,102219.80
2019-04-21T12:34:57.816Z,102211.31
2019-04-21T12:37:24.687Z,102206.03
2019-04-21T12:39:50.633Z,102221.09
2019-04-21T12:42:16.761Z,102183.84
2019-04-21T12:44:43.417Z,102213.48
2019-04-21T12:47:10.053Z,102211.59
2019-04-21T12:49:36.146Z,102206.27
2019-04-21T12:52:02.153Z,102209.73
2019-04-21T12:54:28.183Z,102211.02
2019-04-21T12:56:54.126Z,102209.61
2019-04-21T12:59:21.107Z,102210.45
2019-04-21T13:01:47.062Z,102209.56
2019-04-21T13:04:13.482Z,102199.14
2019-04-21T13:06:39.536Z,102199.63
2019-04-21T13:09:09.367Z,102198.38
2019-04-21T13:11:33.478Z,102208.24
2019-04-21T13:13:59.862Z,102220.16
2019-04-21T13:16:25.810Z,102212.67
2019-04-21T13:18:53.334Z,102218.44
2019-04-21T13:21:20.194Z,102207.32
2019-04-21T13:23:47.219Z,102211.62
2019-04-21T13:26:13.329Z,102204.45
2019-04-21T13:28:40.342Z,102204.94
2019-04-21T13:31:06.557Z,102173.22
2019-04-21T13:33:33.397Z,102200.72
2019-04-21T13:36:00.267Z,102194.64
2019-04-21T13:38:34.646Z,102190.30
2019-04-21T13:41:13.170Z,102181.07
2019-04-21T13:43:27.354Z,102174.91
2019-04-21T13:45:54.058Z,102171.28
2019-04-21T13:48:20.269Z,102172.05
2019-04-21T13:50:47.081Z,102176.08
2019-04-21T13:53:14.288Z,102175.67
2019-04-21T13:55:42.301Z,102180.58
2019-04-21T13:58:08.584Z,102182.23
2019-04-21T14:00:35.828Z,102156.36
2019-04-21T14:03:02.915Z,102177.08
2019-04-21T14:05:29.000Z,102172.11
2019-04-21T14:07:56.214Z,102165.83
2019-04-21T14:10:23.865Z,102157.77
2019-04-21T14:12:50.663Z,102150.23
2019-04-21T14:15:20.109Z,102164.38
2019-04-21T14:17:46.759Z,102169.28
2019-04-21T14:20:13.234Z,102167.55
2019-04-21T14:22:40.036Z,102162.68
2019-04-21T14:25:07.956Z,102160.47
2019-04-21T14:27:34.397Z,102165.87
2019-04-21T14:32:42.130Z,102155.77
2019-04-21T14:35:09.072Z,102152.22
2019-04-21T14:37:35.116Z,102144.73
2019-04-21T14:40:06.853Z,102146.11
2019-04-21T14:42:29.849Z,102145.35
2019-04-21T14:44:56.836Z,102148.57
2019-04-21T14:47:35.025Z,102144.67
2019-04-21T14:50:19.439Z,102142.63
2019-04-21T14:52:46.596Z,102154.30
2019-04-21T14:55:14.638Z,102147.95
2019-04-21T14:57:41.158Z,102138.58
2019-04-21T15:00:09.265Z,102152.98
2019-04-21T15:02:36.003Z,102152.14
2019-04-21T15:05:03.912Z,102149.08
2019-04-21T15:07:30.925Z,102157.57
2019-04-21T15:10:04.727Z,102156.32
2019-04-21T15:12:25.780Z,102153.82
2019-04-21T15:14:51.932Z,102156.59
2019-04-21T15:17:20.727Z,102160.24
2019-04-21T15:19:52.274Z,102158.14
2019-04-21T15:22:14.520Z,102166.63
2019-04-21T15:24:40.484Z,102176.47
2019-04-21T15:27:07.170Z,102177.02
2019-04-21T15:29:33.347Z,102189.92
2019-04-21T15:31:59.204Z,102190.47
2019-04-21T15:34:25.973Z,102193.61
2019-04-21T15:36:53.195Z,102133.53
2019-04-21T15:39:19.530Z,102187.08
2019-04-21T15:41:45.601Z,102184.42
2019-04-21T15:44:12.468Z,102188.41
2019-04-21T15:46:39.765Z,102190.10
2019-04-21T15:49:06.989Z,102186.09
2019-04-21T15:51:33.771Z,102188.73
2019-04-21T15:54:00.893Z,102180.89
2019-04-21T15:56:38.531Z,102184.94
2019-04-21T15:59:06.570Z,102187.62
2019-04-21T16:01:37.005Z,102174.88
2019-04-21T16:04:04.714Z,102183.01
2019-04-21T16:06:31.950Z,102179.57
2019-04-21T16:09:00.871Z,102187.16
2019-04-21T16:11:26.023Z,102184.57
2019-04-21T16:13:52.089Z,102185.18
2019-04-21T16:16:18.260Z,102187.05
2019-04-21T16:18:45.830Z,102180.89
2019-04-21T16:21:11.943Z,102182.66
2019-04-21T16:23:38.291Z,102179.13
2019-04-21T16:26:06.607Z,102181.78
2019-04-21T16:28:33.326Z,102181.34
2019-04-21T16:31:00.516Z,102180.42
2019-04-21T16:33:27.165Z,102180.89
2019-04-21T16:35:53.756Z,102174.33
2019-04-21T16:38:19.744Z,102176.64
2019-04-21T16:40:55.577Z,102180.20
2019-04-21T16:43:14.294Z,102174.46
2019-04-21T16:45:41.102Z,102174.97
2019-04-21T16:48:07.412Z,102186.94
2019-04-21T16:50:33.954Z,102194.45
2019-04-21T16:53:01.895Z,102188.80
2019-04-21T16:55:57.338Z,102195.58
2019-04-21T16:58:40.890Z,102186.40
2019-04-21T17:01:15.929Z,102185.95
2019-04-21T17:03:40.160Z,102174.97
2019-04-21T17:06:06.994Z,102173.64
2019-04-21T17:08:33.938Z,102176.27
2019-04-21T17:11:10.565Z,102177.56
2019-04-21T17:13:27.557Z,102177.56
2019-04-21T17:16:16.443Z,102174.50
2019-04-21T17:18:37.284Z,102174.94
2019-04-21T17:20:55.379Z,102178.03
2019-04-21T17:23:17.612Z,102180.66
2019-04-21T17:25:43.618Z,102187.28
2019-04-21T17:28:09.816Z,102183.78
2019-04-21T17:30:36.729Z,102186.84
2019-04-21T17:33:03.580Z,102186.84
2019-04-21T17:35:31.080Z,102185.98
2019-04-21T17:37:58.362Z,102176.70
2019-04-21T17:40:26.162Z,102185.16
2019-04-21T17:43:01.311Z,102181.63
2019-04-21T17:45:21.240Z,102177.62
2019-04-21T17:47:55.619Z,102179.42
2019-04-21T17:50:20.594Z,102178.53
2019-04-21T17:52:55.749Z,102183.84
2019-04-21T17:55:26.194Z,102182.58
2019-04-21T17:58:04.503Z,102184.38
2019-04-21T18:00:57.815Z,102172.95
2019-04-21T18:03:06.995Z,102180.87
2019-04-21T18:05:41.004Z,102187.43
2019-04-21T18:08:01.110Z,102183.42
2019-04-21T18:10:30.681Z,102186.96
2019-04-21T18:12:52.384Z,102180.37
2019-04-21T18:15:29.084Z,102173.83
2019-04-21T18:17:38.581Z,102169.45
2019-04-21T18:20:05.970Z,102170.73
2019-04-21T18:22:46.905Z,102172.95
2019-04-21T18:25:28.147Z,102171.69
2019-04-21T18:27:42.694Z,102170.83
2019-04-21T18:30:28.389Z,102172.56
2019-04-21T18:32:57.002Z,102169.50
2019-04-21T18:35:24.609Z,102171.24
2019-04-21T18:38:03.464Z,102169.48
2019-04-21T18:40:30.857Z,102173.45
2019-04-21T18:43:27.656Z,102169.48
2019-04-21T18:45:56.835Z,102170.36
2019-04-21T18:48:17.213Z,102170.83
2019-04-21T18:50:47.763Z,102169.06
2019-04-21T18:53:24.034Z,102165.09
2019-04-21T18:55:43.499Z,102169.09
2019-04-21T18:58:05.258Z,102158.14
2019-04-21T19:00:34.546Z,102152.02
2019-04-21T19:03:00.200Z,102141.05
2019-04-21T19:05:29.624Z,102137.54
2019-04-21T19:08:11.861Z,102142.40
2019-04-21T19:10:39.662Z,102140.57
2019-04-21T19:13:31.637Z,102134.39
2019-04-21T19:15:34.258Z,102133.48
2019-04-21T19:20:38.736Z,102131.23
2019-04-21T19:22:57.025Z,102139.19
2019-04-21T19:25:36.864Z,102147.13
2019-04-21T19:27:56.908Z,102144.98
2019-04-21T19:30:36.654Z,102102.73
2019-04-21T19:32:51.011Z,102152.17
2019-04-21T19:35:07.114Z,102153.59
2019-04-21T19:37:40.067Z,102154.11
2019-04-21T19:40:12.121Z,102151.49
2019-04-21T19:42:37.570Z,102148.02
2019-04-21T19:45:10.774Z,102146.73
2019-04-21T19:47:47.375Z,102145.41
2019-04-21T19:50:12.089Z,102136.16
2019-04-21T19:52:30.707Z,102138.84
2019-04-21T19:54:49.106Z,102142.84
2019-04-21T19:57:14.180Z,102138.45
2019-04-21T19:59:47.216Z,102134.51
2019-04-21T20:02:08.994Z,102126.59
2019-04-21T20:04:42.782Z,102138.08
2019-04-21T20:07:22.094Z,102139.37
2019-04-21T20:09:45.135Z,102145.98
2019-04-21T20:12:18.845Z,102142.87
2019-04-21T20:14:55.445Z,102134.89
2019-04-21T20:17:08.349Z,102137.55
2019-04-21T20:19:22.930Z,102146.81
2019-04-21T20:21:51.121Z,102145.57
2019-04-21T20:24:24.345Z,102152.19
2019-04-21T20:26:54.697Z,102135.48
2019-04-21T20:29:27.598Z,102149.08
2019-04-21T20:31:57.450Z,102153.45
2019-04-21T20:34:30.070Z,102142.02
2019-04-21T20:36:56.759Z,102133.16
2019-04-21T20:39:12.618Z,102136.63
2019-04-21T20:41:44.262Z,102135.69
2019-04-21T20:44:18.490Z,102127.33
2019-04-21T20:46:45.022Z,102118.98
2019-04-21T20:49:08.379Z,102114.16
2019-04-21T20:51:43.598Z,102101.79
2019-04-21T20:54:08.700Z,102091.20
2019-04-21T20:56:40.920Z,102088.14
2019-04-21T20:58:59.768Z,102078.91
2019-04-21T21:01:39.490Z,102075.81
2019-04-21T21:03:58.000Z,102060.40
2019-04-21T21:06:26.086Z,102060.78
2019-04-21T21:08:58.162Z,102064.72
2019-04-21T21:11:25.469Z,102063.39
2019-04-21T21:13:52.074Z,102057.59
2019-04-21T21:16:29.642Z,102061.50
2019-04-21T21:21:15.179Z,102056.20
2019-04-21T21:23:42.537Z,102050.94
2019-04-21T21:26:16.104Z,102049.21
2019-04-21T21:28:32.604Z,102046.53
2019-04-21T21:31:07.451Z,102036.34
2019-04-21T21:33:37.302Z,102041.61
2019-04-21T21:36:06.647Z,102041.20
2019-04-21T21:38:31.202Z,102048.73
2019-04-21T21:40:56.015Z,102054.00
2019-04-21T21:43:12.890Z,102062.39
2019-04-21T21:45:42.660Z,102058.01
2019-04-21T21:48:24.771Z,102075.66
2019-04-21T21:50:44.410Z,102083.61
2019-04-21T21:53:07.606Z,102087.14
2019-04-21T21:55:27.818Z,102085.84
2019-04-21T21:57:58.806Z,102086.69
2019-04-21T22:00:23.981Z,102083.16
2019-04-21T22:02:53.203Z,102086.69
2019-04-21T22:05:25.414Z,102088.91
2019-04-21T22:07:46.949Z,102083.16
2019-04-21T22:10:13.089Z,102091.11
2019-04-21T22:12:49.129Z,102078.84
2019-04-21T22:15:12.637Z,102081.93
2019-04-21T22:17:49.645Z,102082.44
2019-04-21T22:20:22.845Z,102086.91
2019-04-21T22:22:42.578Z,102086.50
2019-04-21T22:25:09.503Z,102089.55
2019-04-21T22:27:27.366Z,102081.55
2019-04-21T22:29:58.095Z,102075.78
2019-04-21T22:32:26.812Z,102077.96
2019-04-21T22:34:54.847Z,102091.58
2019-04-21T22:37:30.676Z,102093.79
2019-04-21T22:39:59.496Z,102090.67
2019-04-21T22:42:21.528Z,102089.78
2019-04-21T22:44:40.608Z,102085.81
2019-04-21T22:47:15.653Z,102084.93
2019-04-21T22:49:34.857Z,102081.84
2019-04-21T22:52:10.346Z,102075.28
2019-04-21T22:54:35.490Z,102070.02
2019-04-21T22:57:06.473Z,102058.54
2019-04-21T22:59:26.766Z,102059.02
2019-04-21T23:01:54.390Z,102057.72
2019-04-21T23:04:21.044Z,102062.16
2019-04-21T23:06:51.329Z,102065.28
2019-04-21T23:09:15.045Z,102063.55
2019-04-21T23:11:45.667Z,102069.34
2019-04-21T23:14:13.128Z,102079.48
2019-04-21T23:16:40.294Z,102087.02
2019-04-21T23:19:20.124Z,102082.61
2019-04-21T23:21:53.859Z,102084.75
2019-04-21T23:24:14.974Z,102093.99
2019-04-21T23:26:42.411Z,102082.05
2019-04-21T23:29:15.726Z,102071.08
2019-04-21T23:31:40.202Z,102070.70
2019-04-21T23:33:52.453Z,102073.34
2019-04-21T23:36:24.153Z,102074.64
2019-04-21T23:38:50.086Z,102086.99
2019-04-21T23:41:15.295Z,102075.08
2019-04-21T23:43:44.799Z,102070.31
2019-04-21T23:46:19.816Z,102070.02
2019-04-21T23:48:56.003Z,102067.37
2019-04-21T23:51:15.883Z,102060.34
2019-04-21T23:53:33.414Z,102056.81
2019-04-21T23:55:59.481Z,102061.67
2019-04-21T23:58:28.133Z,102055.93
